createdAt,value
2018-09-12T00:00:41.481Z,92.50
2018-09-12T00:03:09.568Z,92.80
2018-09-12T00:05:37.693Z,92.90
2018-09-12T00:08:05.866Z,93.30
2018-09-12T00:10:34.016Z,93.60
2018-09-12T00:13:02.170Z,93.60
2018-09-12T00:15:30.248Z,93.80
2018-09-12T00:17:58.320Z,94.00
2018-09-12T00:20:26.514Z,94.10
2018-09-12T00:22:54.668Z,93.90
2018-09-12T00:25:22.897Z,94.00
2018-09-12T00:27:51.146Z,93.80
2018-09-12T00:30:19.385Z,94.10
2018-09-12T00:32:47.501Z,94.30
2018-09-12T00:35:15.706Z,94.30
2018-09-12T00:37:43.818Z,94.10
2018-09-12T00:40:11.932Z,94.30
2018-09-12T00:42:41.136Z,94.30
2018-09-12T00:45:09.314Z,94.20
2018-09-12T00:47:37.480Z,94.40
2018-09-12T00:50:05.617Z,94.60
2018-09-12T00:52:33.797Z,94.80
2018-09-12T00:55:02.120Z,94.80
2018-09-12T00:57:30.277Z,94.80
2018-09-12T00:59:58.461Z,94.70
2018-09-12T01:02:26.628Z,94.60
2018-09-12T01:04:54.789Z,94.50
2018-09-12T01:07:22.968Z,94.50
2018-09-12T01:09:51.113Z,94.80
2018-09-12T01:12:19.257Z,94.90
2018-09-12T01:14:47.377Z,95.00
2018-09-12T01:17:15.649Z,95.20
2018-09-12T01:19:45.580Z,95.20
2018-09-12T01:22:13.980Z,95.50
2018-09-12T01:24:42.092Z,95.50
2018-09-12T01:27:10.225Z,95.60
2018-09-12T01:29:38.479Z,95.50
2018-09-12T01:32:06.641Z,95.50
2018-09-12T01:34:34.884Z,95.50
2018-09-12T01:37:03.047Z,95.70
2018-09-12T01:39:31.196Z,96.00
2018-09-12T01:41:59.378Z,95.90
2018-09-12T01:44:27.568Z,96.00
2018-09-12T01:46:55.729Z,96.10
2018-09-12T01:49:23.969Z,96.00
2018-09-12T01:51:52.303Z,96.20
2018-09-12T01:54:20.485Z,96.00
2018-09-12T01:56:48.622Z,95.90
2018-09-12T01:59:16.781Z,96.00
2018-09-12T02:01:45.689Z,96.10
2018-09-12T02:04:13.832Z,96.00
2018-09-12T02:06:42.013Z,95.80
2018-09-12T02:09:12.266Z,95.90
2018-09-12T02:11:40.439Z,96.00
2018-09-12T02:14:08.554Z,96.30
2018-09-12T02:16:36.638Z,96.10
2018-09-12T02:19:05.032Z,96.10
2018-09-12T02:21:33.063Z,96.30
2018-09-12T02:24:01.330Z,96.30
2018-09-12T02:26:29.522Z,96.40
2018-09-12T02:28:57.659Z,96.60
2018-09-12T02:31:25.972Z,96.80
2018-09-12T02:33:54.131Z,96.60
2018-09-12T02:36:26.194Z,96.60
2018-09-12T02:38:54.326Z,96.90
2018-09-12T02:41:22.586Z,97.00
2018-09-12T02:43:50.712Z,97.00
2018-09-12T02:46:18.957Z,97.10
2018-09-12T02:48:47.132Z,97.30
2018-09-12T02:51:15.333Z,97.50
2018-09-12T02:53:43.492Z,97.80
2018-09-12T02:56:11.622Z,97.60
2018-09-12T02:58:39.779Z,97.60
2018-09-12T03:01:07.918Z,97.70
2018-09-12T03:03:36.120Z,97.90
2018-09-12T03:06:04.303Z,97.40
2018-09-12T03:08:32.431Z,97.50
2018-09-12T03:11:00.570Z,97.60
2018-09-12T03:13:28.704Z,97.70
2018-09-12T03:15:56.878Z,97.90
2018-09-12T03:18:25.039Z,97.90
2018-09-12T03:20:53.293Z,98.10
2018-09-12T03:23:21.422Z,98.10
2018-09-12T03:25:49.588Z,98.10
2018-09-12T03:28:17.791Z,98.30
2018-09-12T03:30:46.033Z,98.40
2018-09-12T03:33:14.196Z,98.40
2018-09-12T03:35:43.339Z,98.50
2018-09-12T03:38:11.466Z,98.70
2018-09-12T03:40:39.622Z,98.80
2018-09-12T03:43:07.743Z,99.00
2018-09-12T03:45:35.889Z,99.00
2018-09-12T03:48:04.128Z,99.10
2018-09-12T03:50:32.218Z,99.60
2018-09-12T03:53:00.514Z,99.30
2018-09-12T03:55:28.723Z,99.40
2018-09-12T03:57:56.860Z,99.40
2018-09-12T04:00:25.087Z,99.60
2018-09-12T04:02:53.221Z,99.30
2018-09-12T04:05:21.396Z,99.20
2018-09-12T04:07:49.718Z,99.20
2018-09-12T04:10:17.937Z,99.20
2018-09-12T04:12:46.106Z,99.20
2018-09-12T04:15:14.305Z,99.20
2018-09-12T04:17:42.453Z,99.30
2018-09-12T04:20:11.512Z,99.40
2018-09-12T04:22:39.608Z,99.40
2018-09-12T04:25:07.789Z,99.50
2018-09-12T04:27:35.997Z,99.60
2018-09-12T04:30:04.225Z,99.60
2018-09-12T04:32:32.388Z,99.80
2018-09-12T04:35:00.604Z,99.70
2018-09-12T04:37:28.750Z,99.70
2018-09-12T04:39:56.829Z,99.70
2018-09-12T04:42:25.125Z,99.80
2018-09-12T04:44:53.298Z,99.80
2018-09-12T04:47:21.522Z,99.60
2018-09-12T04:49:49.654Z,99.50
2018-09-12T04:52:17.811Z,99.50
2018-09-12T04:54:45.972Z,99.50
2018-09-12T04:57:14.043Z,99.50
2018-09-12T04:59:42.112Z,99.50
2018-09-12T05:02:10.205Z,99.50
2018-09-12T05:04:38.272Z,99.40
2018-09-12T05:07:06.445Z,99.20
2018-09-12T05:09:34.561Z,99.20
2018-09-12T05:12:02.680Z,99.20
2018-09-12T05:14:30.731Z,99.20
2018-09-12T05:16:58.880Z,99.10
2018-09-12T05:19:27.016Z,99.00
2018-09-12T05:21:55.063Z,98.90
2018-09-12T05:24:23.119Z,98.80
2018-09-12T05:26:51.200Z,98.60
2018-09-12T05:29:19.575Z,98.50
2018-09-12T05:31:47.933Z,98.40
2018-09-12T05:34:16.330Z,98.20
2018-09-12T05:36:44.536Z,98.30
2018-09-12T05:39:12.654Z,98.40
2018-09-12T05:41:40.728Z,98.00
2018-09-12T05:44:08.779Z,97.80
2018-09-12T05:46:37.495Z,97.60
2018-09-12T05:49:05.607Z,97.50
2018-09-12T05:51:34.757Z,97.40
2018-09-12T05:54:02.935Z,97.20
2018-09-12T05:56:30.981Z,97.00
2018-09-12T05:58:59.081Z,96.80
2018-09-12T06:01:27.172Z,96.70
2018-09-12T06:03:55.488Z,96.70
2018-09-12T06:06:23.670Z,96.50
2018-09-12T06:08:51.756Z,96.40
2018-09-12T06:11:19.782Z,96.30
2018-09-12T06:13:47.892Z,96.10
2018-09-12T06:16:16.095Z,95.90
2018-09-12T06:18:44.168Z,95.70
2018-09-12T06:21:12.271Z,95.60
2018-09-12T06:23:40.381Z,95.40
2018-09-12T06:26:08.419Z,95.30
2018-09-12T06:28:36.492Z,95.10
2018-09-12T06:31:04.857Z,94.80
2018-09-12T06:33:32.928Z,94.50
2018-09-12T06:36:00.990Z,94.70
2018-09-12T06:38:29.194Z,94.30
2018-09-12T06:40:57.428Z,93.60
2018-09-12T06:43:25.603Z,93.60
2018-09-12T06:45:53.813Z,93.30
2018-09-12T06:48:21.866Z,93.20
2018-09-12T06:50:49.962Z,93.10
2018-09-12T06:53:18.054Z,92.60
2018-09-12T06:55:46.099Z,92.70
2018-09-12T06:58:14.195Z,92.70
2018-09-12T07:00:42.345Z,92.20
2018-09-12T07:03:10.463Z,91.90
2018-09-12T07:05:38.561Z,91.80
2018-09-12T07:08:06.603Z,91.10
2018-09-12T07:10:34.680Z,91.10
2018-09-12T07:13:02.761Z,90.90
2018-09-12T07:15:30.941Z,90.70
2018-09-12T07:17:59.146Z,90.80
2018-09-12T07:20:27.289Z,90.20
2018-09-12T07:22:55.429Z,90.00
2018-09-12T07:25:23.489Z,90.00
2018-09-12T07:27:51.626Z,90.10
2018-09-12T07:30:19.706Z,89.30
2018-09-12T07:32:47.738Z,89.60
2018-09-12T07:35:15.894Z,89.20
2018-09-12T07:37:43.991Z,88.40
2018-09-12T07:40:12.092Z,88.90
2018-09-12T07:42:40.187Z,88.20
2018-09-12T07:45:08.337Z,87.50
2018-09-12T07:47:36.418Z,87.40
2018-09-12T07:50:04.604Z,85.90
2018-09-12T07:52:32.743Z,85.40
2018-09-12T07:55:00.873Z,84.30
2018-09-12T07:57:29.030Z,83.90
2018-09-12T07:59:57.301Z,83.20
2018-09-12T08:02:25.377Z,84.20
2018-09-12T08:04:53.483Z,82.70
2018-09-12T08:07:21.536Z,82.70
2018-09-12T08:09:49.624Z,80.40
2018-09-12T08:12:17.836Z,80.90
2018-09-12T08:14:45.935Z,79.80
2018-09-12T08:17:14.279Z,79.90
2018-09-12T08:19:42.390Z,78.60
2018-09-12T08:22:10.605Z,78.90
2018-09-12T08:24:38.740Z,78.00
2018-09-12T08:27:06.793Z,73.00
2018-09-12T08:29:34.861Z,70.50
2018-09-12T08:32:02.970Z,66.90
2018-09-12T08:34:31.095Z,61.40
2018-09-12T08:36:59.180Z,56.80
2018-09-12T08:39:27.343Z,54.70
2018-09-12T08:41:55.387Z,55.60
2018-09-12T08:44:23.494Z,57.50
2018-09-12T08:46:51.615Z,55.80
2018-09-12T08:49:19.823Z,54.40
2018-09-12T08:51:47.931Z,52.60
2018-09-12T08:54:16.023Z,51.90
2018-09-12T08:56:44.103Z,52.40
2018-09-12T08:59:12.183Z,53.30
2018-09-12T09:01:40.286Z,55.40
2018-09-12T09:04:08.423Z,53.30
2018-09-12T09:06:36.521Z,51.60
2018-09-12T09:09:08.047Z,50.70
2018-09-12T09:11:36.118Z,51.90
2018-09-12T09:14:04.204Z,50.70
2018-09-12T09:16:32.405Z,48.60
2018-09-12T09:19:00.686Z,50.00
2018-09-12T09:21:29.194Z,49.80
2018-09-12T09:23:57.326Z,47.00
2018-09-12T09:26:25.476Z,46.70
2018-09-12T09:28:53.832Z,46.70
2018-09-12T09:31:21.875Z,46.40
2018-09-12T09:33:49.936Z,47.60
2018-09-12T09:36:17.984Z,46.70
2018-09-12T09:38:46.104Z,46.30
2018-09-12T09:41:14.213Z,46.50
2018-09-12T09:43:42.423Z,45.30
2018-09-12T09:46:10.569Z,44.70
2018-09-12T09:48:38.903Z,45.10
2018-09-12T09:51:06.996Z,43.10
2018-09-12T09:53:35.232Z,43.60
2018-09-12T09:56:03.951Z,44.50
2018-09-12T09:58:32.055Z,44.60
2018-09-12T10:02:04.204Z,45.50
2018-09-12T10:04:37.585Z,45.70
2018-09-12T10:07:11.422Z,44.10
2018-09-12T10:09:39.594Z,44.10
2018-09-12T10:12:07.813Z,43.10
2018-09-12T10:14:36.045Z,41.20
2018-09-12T10:17:04.294Z,39.30
2018-09-12T10:19:32.447Z,38.40
2018-09-12T10:22:00.566Z,38.10
2018-09-12T10:24:28.717Z,40.10
2018-09-12T10:26:56.941Z,41.10
2018-09-12T10:29:25.054Z,41.10
2018-09-12T10:31:53.454Z,40.00
2018-09-12T10:34:21.604Z,40.30
2018-09-12T10:36:49.766Z,39.60
2018-09-12T10:39:18.045Z,38.80
2018-09-12T10:41:46.325Z,38.20
2018-09-12T10:44:14.602Z,37.90
2018-09-12T10:46:42.807Z,38.00
2018-09-12T10:49:10.950Z,37.80
2018-09-12T10:51:39.236Z,37.20
2018-09-12T10:54:07.469Z,36.70
2018-09-12T10:56:35.572Z,37.00
2018-09-12T10:59:03.857Z,35.60
2018-09-12T11:01:31.926Z,34.40
2018-09-12T11:03:59.968Z,35.00
2018-09-12T11:06:28.297Z,33.70
2018-09-12T11:08:56.380Z,36.20
2018-09-12T11:11:24.453Z,37.10
2018-09-12T11:13:52.582Z,36.50
2018-09-12T11:16:20.673Z,36.10
2018-09-12T11:18:48.847Z,34.70
2018-09-12T11:21:17.029Z,34.20
2018-09-12T11:23:45.182Z,32.80
2018-09-12T11:26:13.219Z,33.50
2018-09-12T11:28:41.437Z,34.30
2018-09-12T11:31:09.519Z,35.00
2018-09-12T11:33:37.640Z,36.00
2018-09-12T11:36:05.761Z,34.50
2018-09-12T11:38:33.863Z,34.30
2018-09-12T11:41:01.996Z,35.40
2018-09-12T11:43:30.231Z,34.50
2018-09-12T11:45:58.380Z,34.30
2018-09-12T11:48:26.480Z,35.10
2018-09-12T11:50:54.604Z,35.20
2018-09-12T11:53:22.767Z,35.60
2018-09-12T11:55:50.856Z,35.20
2018-09-12T11:58:19.002Z,35.40
2018-09-12T12:00:47.089Z,34.50
2018-09-12T12:03:15.164Z,34.00
2018-09-12T12:05:43.341Z,34.10
2018-09-12T12:08:11.452Z,34.20
2018-09-12T12:10:39.564Z,33.30
2018-09-12T12:13:07.662Z,33.00
2018-09-12T12:20:23.572Z,33.30
2018-09-12T12:22:51.710Z,35.40
2018-09-12T12:25:19.815Z,35.20
2018-09-12T12:27:47.900Z,34.20
2018-09-12T12:30:16.048Z,35.10
2018-09-12T12:32:44.104Z,35.30
2018-09-12T12:35:12.206Z,34.10
2018-09-12T12:37:40.285Z,34.40
2018-09-12T12:40:08.354Z,33.30
2018-09-12T12:42:36.420Z,33.60
2018-09-12T12:45:04.722Z,32.40
2018-09-12T12:47:32.931Z,31.60
2018-09-12T12:50:01.047Z,33.70
2018-09-12T12:52:29.138Z,34.50
2018-09-12T12:54:57.238Z,33.00
2018-09-12T12:57:25.342Z,32.90
2018-09-12T12:59:53.436Z,33.30
2018-09-12T13:02:21.569Z,33.20
2018-09-12T13:04:49.664Z,33.60
2018-09-12T13:07:17.778Z,34.10
2018-09-12T13:09:45.931Z,33.40
2018-09-12T13:12:14.027Z,32.20
2018-09-12T13:14:42.211Z,31.90
2018-09-12T13:17:10.254Z,32.60
2018-09-12T13:19:38.304Z,33.80
2018-09-12T13:22:06.384Z,34.40
2018-09-12T13:24:34.501Z,33.60
2018-09-12T13:27:02.635Z,32.90
2018-09-12T13:29:31.837Z,32.60
2018-09-12T13:31:59.896Z,32.00
2018-09-12T13:34:28.018Z,32.80
2018-09-12T13:36:56.133Z,33.70
2018-09-12T13:39:24.214Z,32.80
2018-09-12T13:41:52.331Z,32.40
2018-09-12T13:44:20.459Z,32.80
2018-09-12T13:46:48.602Z,33.20
2018-09-12T13:49:16.728Z,33.30
2018-09-12T13:51:45.127Z,33.80
2018-09-12T13:54:13.244Z,33.80
2018-09-12T13:56:41.433Z,33.40
2018-09-12T13:59:09.557Z,34.00
2018-09-12T14:01:37.692Z,33.40
2018-09-12T14:04:05.849Z,33.40
2018-09-12T14:06:33.972Z,33.30
2018-09-12T14:09:02.125Z,33.70
2018-09-12T14:11:30.385Z,34.70
2018-09-12T14:13:58.449Z,34.50
2018-09-12T14:16:26.519Z,34.30
2018-09-12T14:18:54.710Z,34.10
2018-09-12T14:21:22.956Z,33.80
2018-09-12T14:23:51.130Z,34.50
2018-09-12T14:26:19.276Z,34.90
2018-09-12T14:28:47.491Z,35.00
2018-09-12T14:31:15.714Z,34.90
2018-09-12T14:33:43.884Z,34.10
2018-09-12T14:36:11.997Z,34.80
2018-09-12T14:38:40.165Z,35.10
2018-09-12T14:41:08.397Z,35.60
2018-09-12T14:43:36.489Z,36.20
2018-09-12T14:46:04.714Z,35.80
2018-09-12T14:48:32.938Z,36.00
2018-09-12T14:51:01.135Z,36.00
2018-09-12T14:53:29.311Z,36.10
2018-09-12T14:55:57.517Z,35.30
2018-09-12T14:58:25.630Z,35.10
2018-09-12T15:00:54.737Z,35.40
2018-09-12T15:03:23.355Z,35.30
2018-09-12T15:05:51.513Z,34.90
2018-09-12T15:08:19.679Z,35.10
2018-09-12T15:10:47.888Z,35.10
2018-09-12T15:13:16.329Z,35.20
2018-09-12T15:15:44.938Z,35.00
2018-09-12T15:18:13.071Z,35.00
2018-09-12T15:20:41.317Z,35.30
2018-09-12T15:23:10.004Z,35.30
2018-09-12T15:25:38.114Z,36.10
2018-09-12T15:28:06.269Z,36.20
2018-09-12T15:30:34.473Z,36.20
2018-09-12T15:33:02.685Z,36.70
2018-09-12T15:35:31.889Z,36.90
2018-09-12T15:38:00.010Z,36.40
2018-09-12T15:40:28.197Z,36.20
2018-09-12T15:42:56.332Z,35.90
2018-09-12T15:45:24.479Z,35.80
2018-09-12T15:47:52.892Z,35.80
2018-09-12T15:50:22.828Z,36.10
2018-09-12T15:52:51.119Z,36.30
2018-09-12T15:55:19.308Z,36.50
2018-09-12T15:57:47.492Z,36.40
2018-09-12T16:00:15.682Z,37.10
2018-09-12T16:02:43.918Z,37.50
2018-09-12T16:05:12.024Z,38.40
2018-09-12T16:07:40.176Z,38.80
2018-09-12T16:10:08.459Z,39.20
2018-09-12T16:12:36.710Z,39.90
2018-09-12T16:15:05.124Z,40.80
2018-09-12T16:17:33.289Z,40.30
2018-09-12T16:20:01.400Z,40.70
2018-09-12T16:22:29.580Z,41.20
2018-09-12T16:24:57.795Z,41.20
2018-09-12T16:27:25.990Z,41.90
2018-09-12T16:29:54.156Z,42.30
2018-09-12T16:32:22.334Z,42.70
2018-09-12T16:34:50.550Z,43.20
2018-09-12T16:37:18.704Z,43.70
2018-09-12T16:39:46.852Z,44.20
2018-09-12T16:42:15.023Z,44.80
2018-09-12T16:44:43.229Z,45.80
2018-09-12T16:47:11.432Z,46.00
2018-09-12T16:49:39.557Z,45.80
2018-09-12T16:52:07.735Z,46.20
2018-09-12T16:54:35.905Z,47.30
2018-09-12T16:57:04.047Z,47.90
2018-09-12T16:59:32.141Z,48.30
2018-09-12T17:02:00.443Z,48.50
2018-09-12T17:04:28.658Z,48.50
2018-09-12T17:06:56.801Z,49.30
2018-09-12T17:09:24.910Z,49.60
2018-09-12T17:11:53.034Z,51.10
2018-09-12T17:14:21.291Z,50.80
2018-09-12T17:16:49.454Z,51.40
2018-09-12T17:19:17.703Z,53.30
2018-09-12T17:21:45.922Z,52.70
2018-09-12T17:24:14.246Z,54.50
2018-09-12T17:26:42.388Z,53.70
2018-09-12T17:29:10.650Z,56.10
2018-09-12T17:31:38.872Z,56.00
2018-09-12T17:34:07.139Z,55.80
2018-09-12T17:36:35.355Z,56.30
2018-09-12T17:39:04.864Z,57.20
2018-09-12T17:41:33.047Z,57.30
2018-09-12T17:44:01.186Z,57.70
2018-09-12T17:46:31.464Z,57.90
2018-09-12T17:49:00.398Z,58.80
2018-09-12T17:51:28.723Z,58.30
2018-09-12T17:53:56.949Z,58.80
2018-09-12T17:56:25.161Z,59.70
2018-09-12T17:58:53.338Z,59.40
2018-09-12T18:01:21.555Z,60.20
2018-09-12T18:03:49.771Z,61.00
2018-09-12T18:06:17.978Z,63.20
2018-09-12T18:08:46.077Z,62.80
2018-09-12T18:11:15.868Z,63.70
2018-09-12T18:13:44.588Z,63.50
2018-09-12T18:16:12.814Z,66.00
2018-09-12T18:18:40.912Z,65.70
2018-09-12T18:21:09.130Z,67.00
2018-09-12T18:23:37.402Z,67.30
2018-09-12T18:26:05.580Z,69.20
2018-09-12T18:28:33.780Z,70.10
2018-09-12T18:31:01.949Z,71.70
2018-09-12T18:33:30.065Z,73.00
2018-09-12T18:35:58.465Z,72.30
2018-09-12T18:38:26.691Z,74.30
2018-09-12T18:40:54.876Z,73.40
2018-09-12T18:43:23.190Z,76.50
2018-09-12T18:45:51.440Z,75.60
2018-09-12T18:48:19.729Z,77.30
2018-09-12T18:50:48.002Z,77.80
2018-09-12T18:53:16.364Z,77.70
2018-09-12T18:55:44.476Z,78.50
2018-09-12T18:58:12.718Z,78.10
2018-09-12T19:00:40.877Z,79.00
2018-09-12T19:03:09.184Z,79.80
2018-09-12T19:05:37.339Z,81.00
2018-09-12T19:08:05.543Z,79.70
2018-09-12T19:10:33.852Z,79.90
2018-09-12T19:13:02.159Z,79.70
2018-09-12T19:15:30.383Z,79.80
2018-09-12T19:17:58.768Z,81.50
2018-09-12T19:20:26.897Z,82.00
2018-09-12T19:22:55.087Z,82.00
2018-09-12T19:25:23.315Z,82.00
2018-09-12T19:27:51.528Z,81.00
2018-09-12T19:30:19.632Z,82.00
2018-09-12T19:32:47.834Z,83.40
2018-09-12T19:35:15.980Z,83.20
2018-09-12T19:37:44.180Z,84.90
2018-09-12T19:40:12.258Z,84.90
2018-09-12T19:42:40.486Z,84.90
2018-09-12T19:45:08.643Z,84.20
2018-09-12T19:47:36.798Z,85.50
2018-09-12T19:50:04.960Z,86.00
2018-09-12T19:52:33.089Z,87.30
2018-09-12T19:55:01.404Z,88.40
2018-09-12T19:57:29.706Z,89.20
2018-09-12T19:59:57.977Z,89.70
2018-09-12T20:02:29.674Z,89.80
2018-09-12T20:04:58.693Z,90.30
2018-09-12T20:07:27.237Z,90.40
2018-09-12T20:09:55.442Z,90.70
2018-09-12T20:12:23.944Z,90.50
2018-09-12T20:14:52.743Z,90.50
2018-09-12T20:17:20.885Z,90.30
2018-09-12T20:19:49.543Z,90.30
2018-09-12T20:22:17.663Z,90.50
2018-09-12T20:24:45.800Z,90.90
2018-09-12T20:27:14.071Z,91.20
2018-09-12T20:29:43.601Z,91.70
2018-09-12T20:32:11.931Z,92.30
2018-09-12T20:34:40.208Z,93.00
2018-09-12T20:37:08.336Z,93.60
2018-09-12T20:39:36.774Z,94.20
2018-09-12T20:42:05.046Z,94.30
2018-09-12T20:44:33.357Z,94.50
2018-09-12T20:47:01.734Z,94.70
2018-09-12T20:49:30.070Z,95.00
2018-09-12T20:51:58.349Z,95.30
2018-09-12T20:54:26.513Z,95.40
2018-09-12T20:56:54.745Z,95.50
2018-09-12T20:59:23.069Z,95.60
2018-09-12T21:01:51.320Z,95.80
2018-09-12T21:04:19.800Z,95.90
2018-09-12T21:06:47.997Z,96.10
2018-09-12T21:09:16.279Z,96.30
2018-09-12T21:11:44.504Z,96.50
2018-09-12T21:14:14.678Z,96.50
2018-09-12T21:16:43.215Z,96.40
2018-09-12T21:19:11.620Z,96.80
2018-09-12T21:21:40.085Z,96.80
2018-09-12T21:24:08.431Z,96.80
2018-09-12T21:26:36.818Z,97.10
2018-09-12T21:29:05.629Z,97.20
2018-09-12T21:31:34.990Z,97.40
2018-09-12T21:34:03.173Z,97.40
2018-09-12T21:36:31.338Z,97.40
2018-09-12T21:39:00.038Z,97.70
2018-09-12T21:41:28.181Z,97.90
2018-09-12T21:43:56.440Z,98.00
2018-09-12T21:46:24.642Z,98.20
2018-09-12T21:48:52.747Z,98.40
2018-09-12T21:51:20.984Z,98.30
2018-09-12T21:53:49.166Z,98.70
2018-09-12T21:56:17.300Z,99.00
2018-09-12T21:58:45.515Z,99.00
2018-09-12T22:01:13.688Z,98.80
2018-09-12T22:03:41.941Z,99.10
2018-09-12T22:06:10.165Z,99.40
2018-09-12T22:08:38.321Z,99.60
2018-09-12T22:11:06.478Z,99.50
2018-09-12T22:13:34.669Z,99.60
2018-09-12T22:16:02.918Z,99.70
2018-09-12T22:18:31.153Z,99.90
2018-09-12T22:20:59.365Z,99.90
2018-09-12T22:23:27.552Z,99.90
2018-09-12T22:25:55.834Z,99.90
2018-09-12T22:28:24.023Z,99.90
2018-09-12T22:30:52.196Z,99.90
2018-09-12T22:33:20.318Z,99.90
2018-09-12T22:35:48.514Z,99.90
2018-09-12T22:38:16.712Z,99.90
2018-09-12T22:40:44.862Z,99.90
2018-09-12T22:43:13.020Z,99.90
2018-09-12T22:45:41.206Z,99.90
2018-09-12T22:48:09.511Z,99.90
2018-09-12T22:50:37.628Z,99.90
2018-09-12T22:53:05.817Z,99.90
2018-09-12T22:55:33.988Z,99.90
2018-09-12T22:58:02.221Z,99.90
2018-09-12T23:00:30.398Z,99.90
2018-09-12T23:02:58.544Z,99.90
2018-09-12T23:05:26.695Z,99.90
2018-09-12T23:07:54.912Z,99.90
2018-09-12T23:10:23.056Z,99.90
2018-09-12T23:12:51.232Z,99.90
2018-09-12T23:15:19.463Z,99.90
2018-09-12T23:17:47.577Z,99.90
2018-09-12T23:20:15.749Z,99.90
2018-09-12T23:22:43.825Z,99.90
2018-09-12T23:25:12.055Z,99.90
2018-09-12T23:27:40.159Z,99.90
2018-09-12T23:30:08.350Z,99.90
2018-09-12T23:32:36.499Z,99.90
2018-09-12T23:35:04.686Z,99.90
2018-09-12T23:37:32.760Z,99.90
2018-09-12T23:40:00.997Z,99.90
2018-09-12T23:42:29.262Z,99.90
2018-09-12T23:44:57.417Z,99.90
2018-09-12T23:47:25.565Z,99.90
2018-09-12T23:49:53.944Z,99.90
2018-09-12T23:52:22.111Z,99.90
2018-09-12T23:54:50.296Z,99.90
2018-09-12T23:57:18.564Z,99.90
2018-09-12T23:59:46.780Z,99.90
